createdAt,value
2019-04-19T00:00:33.161Z,0
2019-04-19T00:01:15.392Z,0
2019-04-19T00:01:59.389Z,0
2019-04-19T00:02:39.920Z,0
2019-04-19T00:03:20.032Z,0
2019-04-19T00:03:57.069Z,0
2019-04-19T00:04:39.314Z,0
2019-04-19T00:05:17.932Z,0
2019-04-19T00:05:58.159Z,0
2019-04-19T00:06:41.334Z,0
2019-04-19T00:07:22.815Z,0
2019-04-19T00:08:15.158Z,0
2019-04-19T00:08:59.838Z,0
2019-04-19T00:09:30.643Z,0
2019-04-19T00:10:07.925Z,0
2019-04-19T00:10:49.881Z,0
2019-04-19T00:11:31.348Z,0
2019-04-19T00:12:17.894Z,0
2019-04-19T00:12:50.271Z,0
2019-04-19T00:13:23.990Z,0
2019-04-19T00:14:04.556Z,0
2019-04-19T00:14:45.362Z,0
2019-04-19T00:15:26.544Z,0
2019-04-19T00:16:06.776Z,0
2019-04-19T00:16:47.062Z,0
2019-04-19T00:17:29.844Z,0
2019-04-19T00:18:10.907Z,0
2019-04-19T00:19:03.029Z,0
2019-04-19T00:19:44.245Z,0
2019-04-19T00:20:31.167Z,0
2019-04-19T00:21:06.692Z,0
2019-04-19T00:21:57.281Z,0
2019-04-19T00:22:26.336Z,0
2019-04-19T00:23:04.028Z,0
2019-04-19T00:23:38.252Z,0
2019-04-19T00:24:14.231Z,0
2019-04-19T00:24:54.408Z,0
2019-04-19T00:25:34.442Z,0
2019-04-19T00:26:14.935Z,0
2019-04-19T00:26:55.319Z,0
2019-04-19T00:27:43.300Z,0
2019-04-19T00:28:20.514Z,0
2019-04-19T00:29:00.899Z,0
2019-04-19T00:29:46.333Z,0
2019-04-19T00:30:32.428Z,0
2019-04-19T00:31:13.966Z,0
2019-04-19T00:31:47.617Z,0
2019-04-19T00:32:32.163Z,0
2019-04-19T00:33:14.285Z,0
2019-04-19T00:33:46.392Z,0
2019-04-19T00:34:23.120Z,0
2019-04-19T00:35:03.444Z,0
2019-04-19T00:35:43.413Z,0
2019-04-19T00:36:23.618Z,0
2019-04-19T00:37:04.170Z,0
2019-04-19T00:37:44.908Z,0
2019-04-19T00:38:38.090Z,0
2019-04-19T00:39:23.492Z,0
2019-04-19T00:40:05.746Z,0
2019-04-19T00:40:37.997Z,0
2019-04-19T00:41:22.730Z,0
2019-04-19T00:42:04.737Z,0
2019-04-19T00:42:43.687Z,0
2019-04-19T00:43:25.057Z,0
2019-04-19T00:44:02.044Z,0
2019-04-19T00:44:51.316Z,0
2019-04-19T00:45:26.078Z,0
2019-04-19T00:46:08.840Z,0
2019-04-19T00:46:53.202Z,0
2019-04-19T00:47:28.119Z,0
2019-04-19T00:48:05.014Z,0
2019-04-19T00:48:45.725Z,0
2019-04-19T00:49:22.851Z,0
2019-04-19T00:50:07.044Z,0
2019-04-19T00:50:52.563Z,0
2019-04-19T00:51:26.906Z,0
2019-04-19T00:52:09.333Z,0
2019-04-19T00:52:52.919Z,0
2019-04-19T00:53:28.194Z,0
2019-04-19T00:54:06.870Z,0
2019-04-19T00:54:51.901Z,0
2019-04-19T00:55:25.727Z,0
2019-04-19T00:56:06.378Z,0
2019-04-19T00:56:49.955Z,0
2019-04-19T00:57:29.899Z,0
2019-04-19T00:58:09.044Z,0
2019-04-19T00:58:49.881Z,0
2019-04-19T00:59:24.352Z,0
2019-04-19T01:00:03.942Z,0
2019-04-19T01:00:44.587Z,0
2019-04-19T01:01:27.763Z,0
2019-04-19T01:02:10.515Z,0
2019-04-19T01:02:51.121Z,0
2019-04-19T01:03:34.246Z,0
2019-04-19T01:04:13.199Z,0
2019-04-19T01:04:49.163Z,0
2019-04-19T01:05:30.692Z,0
2019-04-19T01:06:13.493Z,0
2019-04-19T01:06:54.833Z,0
2019-04-19T01:07:34.327Z,0
2019-04-19T01:08:13.864Z,0
2019-04-19T01:09:01.120Z,0
2019-04-19T01:09:43.933Z,0
2019-04-19T01:10:26.424Z,0
2019-04-19T01:11:07.711Z,0
2019-04-19T01:11:45.908Z,0
2019-04-19T01:12:22.362Z,0
2019-04-19T01:13:07.697Z,0
2019-04-19T01:13:50.429Z,0
2019-04-19T01:14:27.431Z,0
2019-04-19T01:15:09.198Z,0
2019-04-19T01:15:50.898Z,0
2019-04-19T01:16:26.503Z,0
2019-04-19T01:17:11.029Z,0
2019-04-19T01:17:53.802Z,0
2019-04-19T01:18:28.685Z,0
2019-04-19T01:19:04.704Z,0
2019-04-19T01:19:46.710Z,0
2019-04-19T01:20:20.745Z,0
2019-04-19T01:21:01.314Z,0
2019-04-19T01:21:42.964Z,0
2019-04-19T01:22:25.242Z,0
2019-04-19T01:23:08.833Z,0
2019-04-19T01:23:47.931Z,0
2019-04-19T01:24:30.545Z,0
2019-04-19T01:25:10.226Z,0
2019-04-19T01:25:52.332Z,0
2019-04-19T01:26:29.922Z,0
2019-04-19T01:27:06.849Z,0
2019-04-19T01:27:46.962Z,0
2019-04-19T01:28:29.253Z,0
2019-04-19T01:29:12.018Z,0
2019-04-19T01:29:53.278Z,0
2019-04-19T01:30:34.827Z,0
2019-04-19T01:31:16.301Z,0
2019-04-19T01:31:58.012Z,0
2019-04-19T01:32:34.898Z,0
2019-04-19T01:33:12.529Z,0
2019-04-19T01:33:52.662Z,0
2019-04-19T01:34:34.050Z,0
2019-04-19T01:35:15.618Z,0
2019-04-19T01:35:55.381Z,0
2019-04-19T01:36:38.803Z,0
2019-04-19T01:37:19.458Z,0
2019-04-19T01:38:00.594Z,0
2019-04-19T01:38:40.752Z,0
2019-04-19T01:39:28.491Z,0
2019-04-19T01:40:12.901Z,0
2019-04-19T01:40:58.834Z,0
2019-04-19T01:41:33.015Z,0
2019-04-19T01:42:16.035Z,0
2019-04-19T01:42:52.859Z,0
2019-04-19T01:43:38.302Z,0
2019-04-19T01:44:23.539Z,0
2019-04-19T01:44:56.697Z,0
2019-04-19T01:45:41.659Z,0
2019-04-19T01:46:13.740Z,0
2019-04-19T01:46:55.687Z,0
2019-04-19T01:47:41.310Z,0
2019-04-19T01:48:24.440Z,0
2019-04-19T01:48:56.703Z,0
2019-04-19T01:49:42.724Z,0
2019-04-19T01:50:16.967Z,0
2019-04-19T01:51:01.939Z,0
2019-04-19T01:51:47.677Z,0
2019-04-19T01:52:36.293Z,0
2019-04-19T01:53:08.865Z,0
2019-04-19T01:53:44.316Z,0
2019-04-19T01:54:24.644Z,0
2019-04-19T01:55:01.373Z,0
2019-04-19T01:55:35.073Z,0
2019-04-19T01:56:14.885Z,0
2019-04-19T01:56:57.061Z,0
2019-04-19T01:57:32.388Z,0
2019-04-19T01:58:15.905Z,0
2019-04-19T01:58:57.186Z,0
2019-04-19T01:59:40.520Z,0
2019-04-19T02:00:24.135Z,0
2019-04-19T02:00:58.376Z,0
2019-04-19T02:01:36.215Z,0
2019-04-19T02:02:19.186Z,0
2019-04-19T02:03:01.141Z,0
2019-04-19T02:03:43.372Z,0
2019-04-19T02:04:22.822Z,0
2019-04-19T02:05:05.051Z,0
2019-04-19T02:05:43.624Z,0
2019-04-19T02:06:26.384Z,0
2019-04-19T02:07:00.583Z,0
2019-04-19T02:07:40.781Z,0
2019-04-19T02:08:22.607Z,0
2019-04-19T02:09:03.183Z,0
2019-04-19T02:09:58.788Z,0
2019-04-19T02:10:37.669Z,0
2019-04-19T02:11:11.063Z,0
2019-04-19T02:11:51.162Z,0
2019-04-19T02:12:33.133Z,0
2019-04-19T02:13:16.700Z,0
2019-04-19T02:13:53.054Z,0
2019-04-19T02:14:37.144Z,0
2019-04-19T02:15:11.642Z,0
2019-04-19T02:15:51.248Z,0
2019-04-19T02:16:29.760Z,0
2019-04-19T02:17:11.885Z,0
2019-04-19T02:17:51.293Z,0
2019-04-19T02:18:32.183Z,0
2019-04-19T02:19:16.161Z,0
2019-04-19T02:19:56.983Z,0
2019-04-19T02:20:36.308Z,0
2019-04-19T02:21:12.829Z,0
2019-04-19T02:21:53.945Z,0
2019-04-19T02:22:36.745Z,0
2019-04-19T02:23:16.030Z,0
2019-04-19T02:23:57.786Z,0
2019-04-19T02:24:41.641Z,0
2019-04-19T02:25:20.920Z,0
2019-04-19T02:25:59.050Z,0
2019-04-19T02:26:38.289Z,0
2019-04-19T02:27:18.642Z,0
2019-04-19T02:27:58.452Z,0
2019-04-19T02:28:40.799Z,0
2019-04-19T02:29:21.459Z,0
2019-04-19T02:30:09.333Z,0
2019-04-19T02:30:53.362Z,0
2019-04-19T02:31:43.180Z,0
2019-04-19T02:33:06.788Z,0
2019-04-19T02:33:52.577Z,0
2019-04-19T02:34:33.277Z,0
2019-04-19T02:35:50.574Z,0
2019-04-19T02:36:35.320Z,0
2019-04-19T02:37:15.252Z,0
2019-04-19T02:37:50.917Z,0
2019-04-19T02:38:36.129Z,0
2019-04-19T02:41:17.670Z,0
2019-04-19T02:41:57.527Z,0
2019-04-19T02:42:37.934Z,0
2019-04-19T02:43:23.626Z,0
2019-04-19T02:43:57.674Z,0
2019-04-19T02:44:43.099Z,0
2019-04-19T02:46:15.721Z,0
2019-04-19T02:46:49.696Z,0
2019-04-19T02:47:29.633Z,0
2019-04-19T02:47:53.109Z,0
2019-04-19T02:48:44.655Z,0
2019-04-19T02:49:27.593Z,0
2019-04-19T02:51:07.471Z,0
2019-04-19T02:51:23.698Z,0
2019-04-19T02:52:09.399Z,0
2019-04-19T02:53:22.185Z,0
2019-04-19T02:54:09.435Z,0
2019-04-19T02:54:49.088Z,0
2019-04-19T02:55:18.663Z,0
2019-04-19T02:56:10.727Z,0
2019-04-19T02:57:32.598Z,0
2019-04-19T02:58:03.784Z,0
2019-04-19T02:58:47.878Z,0
2019-04-19T02:59:38.439Z,0
2019-04-19T03:00:21.138Z,0
2019-04-19T03:01:10.883Z,0
2019-04-19T03:01:37.674Z,0
2019-04-19T03:02:52.395Z,0
2019-04-19T03:03:26.926Z,0
2019-04-19T03:04:23.829Z,0
2019-04-19T03:05:31.531Z,0
2019-04-19T03:06:03.741Z,0
2019-04-19T03:06:38.732Z,0
2019-04-19T03:07:12.560Z,0
2019-04-19T03:07:52.087Z,0
2019-04-19T03:08:33.148Z,0
2019-04-19T03:09:13.339Z,0
2019-04-19T03:09:53.646Z,0
2019-04-19T03:10:43.129Z,0
2019-04-19T03:11:30.836Z,0
2019-04-19T03:12:09.736Z,0
2019-04-19T03:12:53.701Z,0
2019-04-19T03:13:30.642Z,0
2019-04-19T03:14:11.751Z,0
2019-04-19T03:14:50.259Z,0
2019-04-19T03:15:40.849Z,0
2019-04-19T03:16:14.874Z,0
2019-04-19T03:16:57.742Z,0
2019-04-19T03:18:23.090Z,0
2019-04-19T03:18:51.645Z,0
2019-04-19T03:19:39.637Z,0
2019-04-19T03:20:16.289Z,0
2019-04-19T03:20:53.837Z,0
2019-04-19T03:21:37.158Z,0
2019-04-19T03:22:22.705Z,0
2019-04-19T03:22:58.196Z,0
2019-04-19T03:23:36.315Z,0
2019-04-19T03:24:18.582Z,0
2019-04-19T03:25:06.045Z,0
2019-04-19T03:25:35.624Z,0
2019-04-19T03:26:25.039Z,0
2019-04-19T03:26:59.945Z,4
2019-04-19T03:27:42.796Z,4
2019-04-19T03:28:18.220Z,4
2019-04-19T03:28:52.982Z,0
2019-04-19T03:29:34.728Z,0
2019-04-19T03:30:29.152Z,4
2019-04-19T03:31:13.722Z,4
2019-04-19T03:31:58.578Z,0
2019-04-19T03:32:53.009Z,4
2019-04-19T03:33:33.028Z,4
2019-04-19T03:34:02.580Z,4
2019-04-19T03:34:50.170Z,4
2019-04-19T03:35:06.246Z,8
2019-04-19T03:35:53.734Z,4
2019-04-19T03:36:30.908Z,8
2019-04-19T03:37:14.141Z,8
2019-04-19T03:37:54.581Z,8
2019-04-19T03:38:33.519Z,8
2019-04-19T03:39:22.768Z,12
2019-04-19T03:40:05.881Z,12
2019-04-19T03:40:34.369Z,12
2019-04-19T03:41:29.169Z,16
2019-04-19T03:42:00.863Z,12
2019-04-19T03:42:40.383Z,16
2019-04-19T03:43:25.120Z,16
2019-04-19T03:43:56.472Z,20
2019-04-19T03:44:35.267Z,20
2019-04-19T03:45:17.278Z,20
2019-04-19T03:46:07.587Z,28
2019-04-19T03:46:52.022Z,28
2019-04-19T03:47:20.776Z,32
2019-04-19T03:48:04.206Z,36
2019-04-19T03:48:43.535Z,40
2019-04-19T03:49:30.153Z,44
2019-04-19T03:50:02.881Z,48
2019-04-19T03:50:41.675Z,48
2019-04-19T03:51:23.187Z,56
2019-04-19T03:52:14.443Z,60
2019-04-19T03:52:48.285Z,64
2019-04-19T03:53:30.709Z,72
2019-04-19T03:54:05.524Z,76
2019-04-19T03:54:43.767Z,80
2019-04-19T03:55:28.405Z,84
2019-04-19T03:56:20.363Z,92
2019-04-19T03:56:48.644Z,96
2019-04-19T03:57:22.869Z,104
2019-04-19T03:58:00.406Z,112
2019-04-19T03:58:35.518Z,120
2019-04-19T03:59:14.798Z,132
2019-04-19T03:59:56.270Z,136
2019-04-19T04:00:36.352Z,144
2019-04-19T04:01:17.044Z,152
2019-04-19T04:01:59.726Z,164
2019-04-19T04:02:41.405Z,172
2019-04-19T04:03:26.087Z,180
2019-04-19T04:04:06.185Z,196
2019-04-19T04:04:41.223Z,208
2019-04-19T04:05:21.384Z,216
2019-04-19T04:06:01.823Z,228
2019-04-19T04:06:44.008Z,236
2019-04-19T04:07:24.400Z,252
2019-04-19T04:08:08.977Z,264
2019-04-19T04:08:47.991Z,276
2019-04-19T04:09:24.839Z,292
2019-04-19T04:10:04.868Z,304
2019-04-19T04:10:45.874Z,316
2019-04-19T04:11:28.173Z,332
2019-04-19T04:12:19.450Z,348
2019-04-19T04:12:55.294Z,360
2019-04-19T04:13:37.054Z,380
2019-04-19T04:14:21.599Z,392
2019-04-19T04:15:00.853Z,412
2019-04-19T04:15:41.423Z,424
2019-04-19T04:16:20.508Z,448
2019-04-19T04:16:52.286Z,460
2019-04-19T04:17:31.166Z,480
2019-04-19T04:18:11.237Z,496
2019-04-19T04:18:51.448Z,516
2019-04-19T04:19:31.998Z,536
2019-04-19T04:20:13.519Z,556
2019-04-19T04:20:56.020Z,572
2019-04-19T04:21:39.003Z,592
2019-04-19T04:22:22.546Z,612
2019-04-19T04:23:01.786Z,636
2019-04-19T04:23:40.901Z,652
2019-04-19T04:24:24.515Z,676
2019-04-19T04:25:05.944Z,696
2019-04-19T04:25:48.312Z,720
2019-04-19T04:26:24.365Z,744
2019-04-19T04:27:07.544Z,768
2019-04-19T04:27:49.377Z,788
2019-04-19T04:28:32.415Z,812
2019-04-19T04:29:09.141Z,832
2019-04-19T04:29:47.537Z,856
2019-04-19T04:30:29.514Z,880
2019-04-19T04:31:11.816Z,908
2019-04-19T04:31:55.713Z,928
2019-04-19T04:32:39.157Z,956
2019-04-19T04:33:12.908Z,980
2019-04-19T04:33:54.427Z,1004
2019-04-19T04:34:37.325Z,1032
2019-04-19T04:35:19.264Z,1052
2019-04-19T04:36:01.156Z,1080
2019-04-19T04:36:44.952Z,1108
2019-04-19T04:37:24.395Z,1132
2019-04-19T04:37:57.999Z,1160
2019-04-19T04:38:34.361Z,1184
2019-04-19T04:39:09.287Z,1208
2019-04-19T04:39:49.615Z,1236
2019-04-19T04:40:30.190Z,1264
2019-04-19T04:41:14.120Z,1288
2019-04-19T04:41:58.268Z,1312
2019-04-19T04:42:39.068Z,1340
2019-04-19T04:43:23.709Z,1368
2019-04-19T04:44:13.257Z,1392
2019-04-19T04:44:57.306Z,1420
2019-04-19T04:45:32.177Z,1448
2019-04-19T04:46:26.695Z,1476
2019-04-19T04:46:56.411Z,1504
2019-04-19T04:47:35.241Z,1528
2019-04-19T04:48:12.418Z,1560
2019-04-19T04:48:52.501Z,1588
2019-04-19T04:49:41.200Z,1612
2019-04-19T04:50:16.770Z,1640
2019-04-19T04:50:59.861Z,1668
2019-04-19T04:51:34.490Z,1696
2019-04-19T04:52:09.534Z,1724
2019-04-19T04:52:43.819Z,1752
2019-04-19T04:53:21.382Z,1784
2019-04-19T04:54:01.973Z,1812
2019-04-19T04:54:43.543Z,1840
2019-04-19T04:55:24.180Z,1872
2019-04-19T04:56:06.043Z,1896
2019-04-19T04:56:53.850Z,1928
2019-04-19T04:57:32.549Z,1948
2019-04-19T04:58:07.049Z,1976
2019-04-19T04:58:47.736Z,2004
2019-04-19T04:59:27.196Z,2028
2019-04-19T05:00:07.865Z,2056
2019-04-19T05:00:53.871Z,2088
2019-04-19T05:01:39.013Z,2112
2019-04-19T05:02:23.021Z,2140
2019-04-19T05:03:03.533Z,2168
2019-04-19T05:03:48.013Z,2196
2019-04-19T05:04:23.717Z,2220
2019-04-19T05:05:09.850Z,2252
2019-04-19T05:05:43.005Z,2276
2019-04-19T05:06:29.187Z,2304
2019-04-19T05:07:09.582Z,2332
2019-04-19T05:07:56.618Z,2360
2019-04-19T05:08:29.336Z,2384
2019-04-19T05:09:08.530Z,2412
2019-04-19T05:09:52.959Z,2440
2019-04-19T05:10:31.467Z,2464
2019-04-19T05:11:15.829Z,2496
2019-04-19T05:12:02.689Z,2520
2019-04-19T05:12:46.027Z,2548
2019-04-19T05:13:27.214Z,2576
2019-04-19T05:13:55.741Z,2604
2019-04-19T05:14:35.890Z,2636
2019-04-19T05:15:22.176Z,2668
2019-04-19T05:15:57.648Z,2692
2019-04-19T05:16:44.165Z,2728
2019-04-19T05:17:31.998Z,2756
2019-04-19T05:18:04.796Z,2784
2019-04-19T05:18:38.755Z,2812
2019-04-19T05:19:17.675Z,2848
2019-04-19T05:20:03.338Z,2876
2019-04-19T05:20:40.806Z,2904
2019-04-19T05:21:21.237Z,2936
2019-04-19T05:22:04.355Z,2964
2019-04-19T05:22:36.307Z,2996
2019-04-19T05:23:21.987Z,3024
2019-04-19T05:24:08.649Z,3056
2019-04-19T05:24:56.238Z,3088
2019-04-19T05:25:30.622Z,3112
2019-04-19T05:26:07.368Z,3140
2019-04-19T05:26:51.469Z,3172
2019-04-19T05:27:32.672Z,3200
2019-04-19T05:28:12.238Z,3232
2019-04-19T05:28:46.263Z,3264
2019-04-19T05:29:22.611Z,3296
2019-04-19T05:29:54.865Z,3328
2019-04-19T05:30:40.108Z,3356
2019-04-19T05:31:22.452Z,3392
2019-04-19T05:32:03.803Z,3420
2019-04-19T05:32:37.398Z,3452
2019-04-19T05:33:22.599Z,3476
2019-04-19T05:34:14.557Z,3504
2019-04-19T05:34:50.937Z,3532
2019-04-19T05:35:29.449Z,3564
2019-04-19T05:36:17.614Z,3592
2019-04-19T05:36:54.362Z,3624
2019-04-19T05:37:38.046Z,3652
2019-04-19T05:38:14.714Z,3684
2019-04-19T05:38:57.188Z,3712
2019-04-19T05:39:41.087Z,3744
2019-04-19T05:40:18.828Z,3776
2019-04-19T05:40:53.117Z,3804
2019-04-19T05:41:34.849Z,3836
2019-04-19T05:42:12.818Z,3868
2019-04-19T05:42:56.350Z,3896
2019-04-19T05:43:56.733Z,3928
2019-04-19T05:44:29.488Z,3956
2019-04-19T05:45:20.202Z,3988
2019-04-19T05:45:51.369Z,4016
2019-04-19T05:46:27.957Z,4044
2019-04-19T05:47:04.407Z,4080
2019-04-19T05:47:40.178Z,4108
2019-04-19T05:48:19.672Z,4144
2019-04-19T05:48:55.421Z,4176
2019-04-19T05:49:45.074Z,4212
2019-04-19T05:50:29.943Z,4244
2019-04-19T05:51:13.799Z,4276
2019-04-19T05:52:28.458Z,4344
2019-04-19T05:53:07.380Z,4376
2019-04-19T05:53:39.196Z,4412
2019-04-19T05:54:15.237Z,4444
2019-04-19T05:54:53.848Z,4476
2019-04-19T05:55:34.735Z,4512
2019-04-19T05:56:15.730Z,4548
2019-04-19T05:57:00.812Z,4580
2019-04-19T05:57:49.812Z,4616
2019-04-19T05:58:22.798Z,4652
2019-04-19T05:59:05.694Z,4684
2019-04-19T05:59:47.221Z,4720
2019-04-19T06:00:33.843Z,4756
2019-04-19T06:01:11.299Z,4796
2019-04-19T06:01:54.718Z,4832
2019-04-19T06:02:26.123Z,4868
2019-04-19T06:03:08.894Z,4900
2019-04-19T06:03:57.189Z,4932
2019-04-19T06:04:41.325Z,4964
2019-04-19T06:05:20.098Z,4992
2019-04-19T06:06:06.864Z,5020
2019-04-19T06:06:47.400Z,5052
2019-04-19T06:07:21.545Z,5088
2019-04-19T06:07:53.710Z,5128
2019-04-19T06:08:30.779Z,5164
2019-04-19T06:09:06.961Z,5208
2019-04-19T06:09:47.564Z,5248
2019-04-19T06:10:32.838Z,5296
2019-04-19T06:11:09.221Z,5340
2019-04-19T06:11:49.556Z,5392
2019-04-19T06:12:33.235Z,5444
2019-04-19T06:13:13.898Z,5496
2019-04-19T06:14:11.505Z,5552
2019-04-19T06:14:56.616Z,5608
2019-04-19T06:15:36.392Z,5676
2019-04-19T06:16:15.298Z,5744
2019-04-19T06:16:51.052Z,5824
2019-04-19T06:17:30.315Z,5916
2019-04-19T06:18:12.659Z,6028
2019-04-19T06:18:49.445Z,6144
2019-04-19T06:19:34.896Z,6260
2019-04-19T06:20:15.667Z,6380
2019-04-19T06:21:04.030Z,6492
2019-04-19T06:21:36.512Z,6632
2019-04-19T06:22:12.771Z,7288
2019-04-19T06:23:02.364Z,23744
2019-04-19T06:23:48.047Z,49152
2019-04-19T06:24:21.474Z,68480
2019-04-19T06:25:00.276Z,71360
2019-04-19T06:25:50.369Z,73120
2019-04-19T06:27:12.517Z,79104
2019-04-19T06:28:08.759Z,80832
2019-04-19T06:28:28.385Z,82528
2019-04-19T06:29:37.856Z,83648
2019-04-19T06:29:58.464Z,82432
2019-04-19T06:30:30.073Z,79712
2019-04-19T06:31:16.628Z,75104
2019-04-19T06:31:57.047Z,72800
2019-04-19T06:32:33.546Z,73728
2019-04-19T06:33:10.614Z,75232
2019-04-19T06:33:53.245Z,76224
2019-04-19T06:34:35.971Z,77408
2019-04-19T06:35:09.755Z,78816
2019-04-19T06:35:46.348Z,80928
2019-04-19T06:36:19.247Z,81632
2019-04-19T06:37:08.006Z,81440
2019-04-19T06:37:40.456Z,80832
2019-04-19T06:38:20.448Z,80480
2019-04-19T06:39:01.459Z,81504
2019-04-19T06:39:41.650Z,82240
2019-04-19T06:40:27.646Z,78528
2019-04-19T06:41:09.047Z,71456
2019-04-19T06:41:49.080Z,66688
2019-04-19T06:42:34.350Z,65600
2019-04-19T06:43:12.493Z,67392
2019-04-19T06:43:55.233Z,73216
2019-04-19T06:44:44.530Z,76384
2019-04-19T06:45:22.573Z,79008
2019-04-19T06:46:02.081Z,79200
2019-04-19T06:46:38.036Z,78912
2019-04-19T06:47:16.201Z,80512
2019-04-19T06:47:58.805Z,82272
2019-04-19T06:48:33.766Z,83392
2019-04-19T06:49:18.388Z,83168
2019-04-19T06:49:54.417Z,82016
2019-04-19T06:50:38.226Z,81728
2019-04-19T06:51:24.237Z,80032
2019-04-19T06:52:03.730Z,78624
2019-04-19T06:52:37.748Z,77600
2019-04-19T06:53:16.765Z,77600
2019-04-19T06:54:02.340Z,79040
2019-04-19T06:54:41.569Z,81664
2019-04-19T06:55:24.680Z,82752
2019-04-19T06:56:08.618Z,83584
2019-04-19T06:56:44.554Z,83104
2019-04-19T06:57:28.761Z,81376
2019-04-19T06:58:10.406Z,81888
2019-04-19T06:58:51.675Z,81152
2019-04-19T06:59:37.937Z,78656
2019-04-19T07:00:16.303Z,78528
2019-04-19T07:00:59.997Z,79328
2019-04-19T07:01:35.258Z,82304
2019-04-19T07:02:07.385Z,82912
2019-04-19T07:02:47.671Z,82592
2019-04-19T07:03:28.454Z,80832
2019-04-19T07:04:09.044Z,78528
2019-04-19T07:04:58.999Z,78400
2019-04-19T07:05:42.947Z,80096
2019-04-19T07:06:26.782Z,81536
2019-04-19T07:07:09.193Z,81312
2019-04-19T07:07:53.817Z,80128
2019-04-19T07:09:20.719Z,81568
2019-04-19T07:10:02.316Z,82880
2019-04-19T07:10:42.448Z,85152
2019-04-19T07:11:16.011Z,85632
2019-04-19T07:12:01.682Z,86784
2019-04-19T07:12:39.894Z,89056
2019-04-19T07:13:12.502Z,88096
2019-04-19T07:13:50.700Z,86880
2019-04-19T07:14:24.809Z,86720
2019-04-19T07:15:29.982Z,87520
2019-04-19T07:16:07.209Z,88416
2019-04-19T07:16:43.881Z,86688
2019-04-19T07:17:20.021Z,86400
2019-04-19T07:17:56.766Z,84160
2019-04-19T07:18:39.068Z,83808
2019-04-19T07:19:24.262Z,82592
2019-04-19T07:20:03.054Z,83616
2019-04-19T07:20:42.164Z,85344
2019-04-19T07:21:27.614Z,85600
2019-04-19T07:22:04.722Z,84352
2019-04-19T07:22:46.262Z,86432
2019-04-19T07:23:32.004Z,87744
2019-04-19T07:24:23.294Z,86592
2019-04-19T07:25:04.512Z,86528
2019-04-19T07:25:42.083Z,86912
2019-04-19T07:26:20.056Z,89280
2019-04-19T07:26:57.518Z,92352
2019-04-19T07:27:36.454Z,92640
2019-04-19T07:28:12.211Z,90784
2019-04-19T07:28:45.634Z,88416
2019-04-19T07:29:27.687Z,88640
2019-04-19T07:30:10.212Z,90464
2019-04-19T07:30:55.955Z,91456
2019-04-19T07:31:34.931Z,89248
2019-04-19T07:32:17.476Z,87648
2019-04-19T07:33:02.158Z,84960
2019-04-19T07:33:45.097Z,87296
2019-04-19T07:34:34.130Z,89056
2019-04-19T07:35:13.093Z,87104
2019-04-19T07:36:00.318Z,88320
2019-04-19T07:36:39.897Z,88224
2019-04-19T07:37:18.293Z,87264
2019-04-19T07:38:10.664Z,89632
2019-04-19T07:38:45.495Z,91328
2019-04-19T07:39:23.692Z,90624
2019-04-19T07:40:11.078Z,89312
2019-04-19T07:40:48.459Z,86976
2019-04-19T07:41:26.561Z,87168
2019-04-19T07:42:16.727Z,90816
2019-04-19T07:42:50.363Z,91040
2019-04-19T07:43:28.290Z,91712
2019-04-19T07:44:09.630Z,90208
2019-04-19T07:44:47.732Z,91072
2019-04-19T07:45:28.545Z,87776
2019-04-19T07:46:19.161Z,85472
2019-04-19T07:47:00.777Z,85216
2019-04-19T07:47:33.739Z,85280
2019-04-19T07:48:12.342Z,85600
2019-04-19T07:48:49.234Z,86048
2019-04-19T07:49:29.416Z,88512
2019-04-19T07:50:17.704Z,90144
2019-04-19T07:50:58.325Z,90688
2019-04-19T07:51:37.811Z,90976
2019-04-19T07:52:19.724Z,89376
2019-04-19T07:52:58.696Z,85344
2019-04-19T07:53:41.215Z,80992
2019-04-19T07:54:21.806Z,82688
2019-04-19T07:55:05.880Z,90144
2019-04-19T07:55:57.177Z,89632
2019-04-19T07:56:38.671Z,83328
2019-04-19T07:57:41.518Z,80896
2019-04-19T07:58:21.705Z,84096
2019-04-19T07:58:55.163Z,86720
2019-04-19T07:59:38.376Z,86912
2019-04-19T08:00:18.268Z,88320
2019-04-19T08:00:55.817Z,88672
2019-04-19T08:02:26.147Z,86368
2019-04-19T08:03:24.298Z,84928
2019-04-19T08:03:57.191Z,81952
2019-04-19T08:05:10.625Z,79072
2019-04-19T08:06:39.335Z,78560
2019-04-19T08:08:06.388Z,54112
2019-04-19T08:08:46.374Z,32672
2019-04-19T08:09:18.662Z,21472
2019-04-19T08:10:54.557Z,20032
2019-04-19T08:12:59.245Z,18784
2019-04-19T08:15:04.147Z,17536
2019-04-19T08:15:36.109Z,17120
2019-04-19T08:16:09.342Z,16704
2019-04-19T08:17:41.161Z,15936
2019-04-19T08:18:20.520Z,15340
2019-04-19T08:27:30.943Z,11000
2019-04-19T08:28:20.103Z,10792
2019-04-19T08:28:56.196Z,10612
2019-04-19T08:29:40.549Z,10452
2019-04-19T08:30:16.498Z,10284
2019-04-19T08:30:55.841Z,10136
2019-04-19T08:31:34.182Z,9992
2019-04-19T08:32:15.247Z,9836
2019-04-19T08:32:57.339Z,9688
2019-04-19T08:33:38.752Z,9556
2019-04-19T08:34:20.908Z,9416
2019-04-19T08:35:02.743Z,9276
2019-04-19T08:35:46.897Z,9164
2019-04-19T08:36:31.043Z,9040
2019-04-19T08:37:06.220Z,8940
2019-04-19T08:37:45.999Z,8848
2019-04-19T08:38:28.847Z,8732
2019-04-19T08:39:19.969Z,8636
2019-04-19T08:39:59.967Z,8536
2019-04-19T08:40:49.767Z,8444
2019-04-19T08:41:21.347Z,8344
2019-04-19T08:42:09.225Z,8268
2019-04-19T08:42:49.806Z,8180
2019-04-19T08:43:31.665Z,8084
2019-04-19T08:44:13.931Z,8008
2019-04-19T08:44:49.063Z,7920
2019-04-19T08:45:23.174Z,7836
2019-04-19T08:46:00.813Z,7768
2019-04-19T08:46:43.011Z,7692
2019-04-19T08:47:30.233Z,7620
2019-04-19T08:48:11.782Z,7548
2019-04-19T08:48:52.413Z,7468
2019-04-19T08:49:35.066Z,7404
2019-04-19T08:50:12.500Z,7336
2019-04-19T08:50:54.943Z,7280
2019-04-19T08:51:38.165Z,7220
2019-04-19T08:52:23.168Z,7160
2019-04-19T08:53:07.492Z,7108
2019-04-19T08:53:54.032Z,7060
2019-04-19T08:55:24.035Z,6940
2019-04-19T08:55:59.249Z,6884
2019-04-19T08:56:34.248Z,6832
2019-04-19T08:57:12.436Z,6804
2019-04-19T08:57:53.476Z,6752
2019-04-19T08:58:43.189Z,6724
2019-04-19T08:59:34.215Z,6704
2019-04-19T09:00:16.247Z,6676
2019-04-19T09:00:57.380Z,6640
2019-04-19T09:01:32.831Z,6592
2019-04-19T09:02:09.320Z,6540
2019-04-19T09:02:48.628Z,6488
2019-04-19T09:03:39.896Z,6476
2019-04-19T09:04:17.974Z,6448
2019-04-19T09:04:53.269Z,6432
2019-04-19T09:05:34.192Z,6404
2019-04-19T09:07:46.788Z,6308
2019-04-19T09:08:22.615Z,6272
2019-04-19T09:08:56.405Z,6260
2019-04-19T09:09:50.333Z,6220
2019-04-19T09:10:38.733Z,6196
2019-04-19T09:11:04.976Z,6148
2019-04-19T09:11:47.828Z,6124
2019-04-19T09:12:25.220Z,6088
2019-04-19T09:13:18.018Z,6068
2019-04-19T09:13:49.166Z,6032
2019-04-19T09:14:35.105Z,6040
2019-04-19T09:15:12.413Z,6000
2019-04-19T09:15:56.933Z,5996
2019-04-19T09:16:29.790Z,5960
2019-04-19T09:17:18.640Z,5932
2019-04-19T09:18:17.744Z,5920
2019-04-19T09:18:45.123Z,5880
2019-04-19T09:19:24.265Z,5868
2019-04-19T09:20:38.427Z,5824
2019-04-19T09:21:21.357Z,5788
2019-04-19T09:22:03.902Z,5760
2019-04-19T09:22:41.262Z,5712
2019-04-19T09:23:20.768Z,5712
2019-04-19T09:23:57.204Z,5668
2019-04-19T09:24:43.966Z,5656
2019-04-19T09:25:23.988Z,5644
2019-04-19T09:26:08.860Z,5644
2019-04-19T09:26:52.645Z,5612
2019-04-19T09:27:41.547Z,5600
2019-04-19T09:28:30.630Z,5584
2019-04-19T09:28:59.912Z,5580
2019-04-19T09:29:44.831Z,5568
2019-04-19T09:30:21.386Z,5576
2019-04-19T09:30:58.086Z,5560
2019-04-19T09:31:40.614Z,5544
2019-04-19T09:32:13.442Z,5540
2019-04-19T09:32:49.349Z,5516
2019-04-19T09:33:32.930Z,5512
2019-04-19T09:34:15.230Z,5508
2019-04-19T09:34:57.337Z,5484
2019-04-19T09:35:38.356Z,5452
2019-04-19T09:36:18.961Z,5432
2019-04-19T09:37:04.688Z,5432
2019-04-19T09:37:50.665Z,5448
2019-04-19T09:38:31.930Z,5404
2019-04-19T09:39:13.544Z,5396
2019-04-19T09:39:52.172Z,5368
2019-04-19T09:40:30.017Z,5380
2019-04-19T09:41:09.466Z,5376
2019-04-19T09:41:51.160Z,5368
2019-04-19T09:42:38.614Z,5344
2019-04-19T09:43:23.496Z,5340
2019-04-19T09:43:57.923Z,5340
2019-04-19T09:44:38.181Z,5284
2019-04-19T09:45:12.892Z,5308
2019-04-19T09:45:55.314Z,5292
2019-04-19T09:46:36.133Z,5276
2019-04-19T09:47:18.641Z,5252
2019-04-19T09:47:58.999Z,5212
2019-04-19T09:48:55.220Z,5196
2019-04-19T09:49:37.523Z,5188
2019-04-19T09:50:14.547Z,5144
2019-04-19T09:50:57.914Z,5168
2019-04-19T09:51:42.526Z,5180